createdAt,value
2022-11-08T00:00:11.778Z,97530.47
2022-11-08T00:02:41.754Z,97531.06
2022-11-08T00:05:30.578Z,97536.06
2022-11-08T00:08:15.680Z,97539.53
2022-11-08T00:11:01.122Z,97521.56
2022-11-08T00:13:46.089Z,97524.41
2022-11-08T00:16:12.575Z,97521.13
2022-11-08T00:18:42.138Z,97533.19
2022-11-08T00:21:09.993Z,97524.34
2022-11-08T00:23:36.474Z,97523.09
2022-11-08T00:26:03.038Z,97516.03
2022-11-08T00:28:29.536Z,97514.03
2022-11-08T00:30:56.029Z,97517.72
2022-11-08T00:33:22.504Z,97502.81
2022-11-08T00:35:49.007Z,97498.91
2022-11-08T00:38:15.882Z,97499.25
2022-11-08T00:40:42.536Z,97495.78
2022-11-08T00:43:11.210Z,97502.91
2022-11-08T00:48:21.711Z,97488.66
2022-11-08T00:50:48.223Z,97480.97
2022-11-08T00:53:14.802Z,97473.34
2022-11-08T00:55:44.445Z,97482.56
2022-11-08T00:58:12.309Z,97483.75
2022-11-08T01:00:38.808Z,97487.25
2022-11-08T01:03:20.397Z,97494.84
2022-11-08T01:05:48.585Z,97493.72
2022-11-08T01:08:17.019Z,97493.88
2022-11-08T01:10:46.180Z,97508.84
2022-11-08T01:13:15.831Z,97487.53
2022-11-08T01:15:46.049Z,97499.44
2022-11-08T01:18:17.084Z,97508.44
2022-11-08T01:20:49.321Z,97501.53
2022-11-08T01:23:17.471Z,97498.25
2022-11-08T01:25:49.918Z,97488.59
2022-11-08T01:28:17.284Z,97520.63
2022-11-08T01:30:45.235Z,97524.13
2022-11-08T01:33:14.655Z,97518.97
2022-11-08T01:35:45.499Z,97498.44
2022-11-08T01:38:14.953Z,97518.97
2022-11-08T01:40:45.609Z,97510.19
2022-11-08T01:43:30.412Z,97515.50
2022-11-08T01:46:18.897Z,97515.72
2022-11-08T01:49:18.925Z,97516.13
2022-11-08T01:51:58.306Z,97516.97
2022-11-08T01:55:03.710Z,97529.78
2022-11-08T01:57:38.783Z,97536.56
2022-11-08T02:00:10.270Z,97552.72
2022-11-08T02:02:38.804Z,97568.94
2022-11-08T02:05:24.694Z,97552.97
2022-11-08T02:07:57.650Z,97531.00
2022-11-08T02:10:29.602Z,97556.00
2022-11-08T02:12:56.284Z,97555.00
2022-11-08T02:15:25.243Z,97549.09
2022-11-08T02:17:53.429Z,97549.91
2022-11-08T02:20:20.615Z,97538.19
2022-11-08T02:23:10.238Z,97510.31
2022-11-08T02:25:36.759Z,97515.66
2022-11-08T02:28:03.577Z,97507.25
2022-11-08T02:30:34.611Z,97517.97
2022-11-08T02:33:01.370Z,97506.06
2022-11-08T02:35:28.002Z,97499.31
2022-11-08T02:37:54.588Z,97514.28
2022-11-08T02:40:21.078Z,97499.47
2022-11-08T02:42:50.760Z,97508.13
2022-11-08T02:45:20.185Z,97496.81
2022-11-08T02:47:47.035Z,97477.75
2022-11-08T02:50:13.705Z,97485.56
2022-11-08T02:52:40.222Z,97485.19
2022-11-08T02:55:06.961Z,97494.00
2022-11-08T02:57:33.528Z,97478.59
2022-11-08T03:00:00.030Z,97491.31
2022-11-08T03:02:26.743Z,97485.78
2022-11-08T03:04:53.381Z,97488.44
2022-11-08T03:07:24.948Z,97478.84
2022-11-08T03:09:51.709Z,97479.88
2022-11-08T03:12:20.245Z,97470.66
2022-11-08T03:14:46.775Z,97461.03
2022-11-08T03:17:13.282Z,97476.63
2022-11-08T03:19:39.794Z,97467.63
2022-11-08T03:22:06.310Z,97473.56
2022-11-08T03:24:33.873Z,97475.19
2022-11-08T03:27:00.375Z,97474.78
2022-11-08T03:29:26.844Z,97485.63
2022-11-08T03:31:53.331Z,97470.28
2022-11-08T03:34:22.869Z,97479.09
2022-11-08T03:36:52.330Z,97471.72
2022-11-08T03:39:21.333Z,97453.06
2022-11-08T03:41:47.810Z,97459.44
2022-11-08T03:44:14.325Z,97447.97
2022-11-08T03:46:40.840Z,97463.72
2022-11-08T03:49:07.370Z,97469.88
2022-11-08T03:51:33.865Z,97458.41
2022-11-08T03:54:00.388Z,97454.94
2022-11-08T03:56:26.921Z,97468.66
2022-11-08T03:58:53.432Z,97454.28
2022-11-08T04:01:22.144Z,97458.81
2022-11-08T04:03:48.709Z,97452.44
2022-11-08T04:06:15.216Z,97423.97
2022-11-08T04:08:41.762Z,97432.16
2022-11-08T04:11:26.534Z,97460.25
2022-11-08T04:14:11.392Z,97460.22
2022-11-08T04:16:38.017Z,97475.81
2022-11-08T04:19:23.044Z,97467.22
2022-11-08T04:21:53.214Z,97475.19
2022-11-08T04:24:20.428Z,97456.13
2022-11-08T04:26:47.252Z,97472.94
2022-11-08T04:29:14.197Z,97482.56
2022-11-08T04:31:40.811Z,97476.41
2022-11-08T04:34:07.431Z,97456.97
2022-11-08T04:36:34.061Z,97480.31
2022-11-08T04:39:00.599Z,97478.28
2022-11-08T04:41:27.253Z,97473.34
2022-11-08T04:43:57.204Z,97482.78
2022-11-08T04:46:28.446Z,97485.63
2022-11-08T04:48:59.727Z,97478.63
2022-11-08T04:51:31.867Z,97469.28
2022-11-08T04:54:00.558Z,97466.81
2022-11-08T04:56:29.391Z,97472.75
2022-11-08T04:58:58.036Z,97468.44
2022-11-08T05:01:30.489Z,97472.34
2022-11-08T05:03:57.607Z,97467.81
2022-11-08T05:06:27.705Z,97472.94
2022-11-08T05:08:58.820Z,97463.72
2022-11-08T05:11:35.440Z,97456.16
2022-11-08T05:14:02.015Z,97460.88
2022-11-08T05:16:31.035Z,97469.66
2022-11-08T05:18:58.210Z,97459.00
2022-11-08T05:21:43.814Z,97474.78
2022-11-08T05:24:14.474Z,97447.31
2022-11-08T05:26:45.081Z,97473.78
2022-11-08T05:29:12.719Z,97482.75
2022-11-08T05:31:39.475Z,97458.72
2022-11-08T05:34:07.382Z,97469.44
2022-11-08T05:36:33.999Z,97467.31
2022-11-08T05:39:00.498Z,97466.06
2022-11-08T05:41:30.069Z,97463.84
2022-11-08T05:43:59.434Z,97488.22
2022-11-08T05:46:29.252Z,97472.69
2022-11-08T05:48:58.485Z,97489.28
2022-11-08T05:51:25.078Z,97482.53
2022-11-08T05:53:51.673Z,97494.19
2022-11-08T05:56:18.589Z,97466.72
2022-11-08T05:58:45.616Z,97458.69
2022-11-08T06:01:15.391Z,97490.47
2022-11-08T06:03:42.254Z,97478.97
2022-11-08T06:06:18.449Z,97461.09
2022-11-08T06:08:49.983Z,97491.28
2022-11-08T06:11:19.701Z,97486.16
2022-11-08T06:13:46.582Z,97466.94
2022-11-08T06:16:15.196Z,97467.97
2022-11-08T06:18:42.444Z,97499.50
2022-11-08T06:21:12.648Z,97499.31
2022-11-08T06:23:39.898Z,97501.13
2022-11-08T06:26:06.499Z,97495.19
2022-11-08T06:28:33.552Z,97501.13
2022-11-08T06:31:01.557Z,97513.47
2022-11-08T06:33:31.102Z,97511.81
2022-11-08T06:35:57.658Z,97511.81
2022-11-08T06:38:24.432Z,97501.97
2022-11-08T06:40:50.958Z,97513.25
2022-11-08T06:43:19.800Z,97525.13
2022-11-08T06:45:46.967Z,97515.22
2022-11-08T06:48:13.504Z,97531.84
2022-11-08T06:50:41.655Z,97527.97
2022-11-08T06:53:10.886Z,97520.38
2022-11-08T06:55:37.677Z,97519.38
2022-11-08T06:58:05.107Z,97530.69
2022-11-08T07:00:34.762Z,97526.13
2022-11-08T07:03:04.371Z,97513.81
2022-11-08T07:05:35.124Z,97519.41
2022-11-08T07:08:03.399Z,97554.53
2022-11-08T07:10:31.914Z,97547.56
2022-11-08T07:13:09.848Z,97543.41
2022-11-08T07:15:36.974Z,97540.53
2022-11-08T07:18:09.400Z,97560.03
2022-11-08T07:20:36.179Z,97544.03
2022-11-08T07:23:05.339Z,97547.97
2022-11-08T07:25:35.019Z,97539.03
2022-11-08T07:28:06.522Z,97556.22
2022-11-08T07:30:35.407Z,97533.47
2022-11-08T07:33:02.863Z,97563.63
2022-11-08T07:35:29.795Z,97558.72
2022-11-08T07:37:56.843Z,97584.97
2022-11-08T07:40:23.898Z,97583.34
2022-11-08T07:43:10.687Z,97582.25
2022-11-08T07:45:37.176Z,97565.44
2022-11-08T07:48:13.241Z,97580.41
2022-11-08T07:50:43.255Z,97565.66
2022-11-08T07:53:10.629Z,97592.91
2022-11-08T07:55:38.421Z,97584.69
2022-11-08T07:58:10.305Z,97589.84
2022-11-08T08:00:38.863Z,97603.81
2022-11-08T08:03:08.004Z,97599.72
2022-11-08T08:05:40.421Z,97593.16
2022-11-08T08:08:07.568Z,97600.88
2022-11-08T08:10:36.189Z,97583.97
2022-11-08T08:13:05.487Z,97557.91
2022-11-08T08:15:32.753Z,97572.63
2022-11-08T08:18:02.016Z,97582.75
2022-11-08T08:20:29.637Z,97592.13
2022-11-08T08:22:56.200Z,97562.09
2022-11-08T08:25:22.707Z,97582.44
2022-11-08T08:27:56.867Z,97579.25
2022-11-08T08:30:24.507Z,97580.44
2022-11-08T08:33:08.180Z,97573.34
2022-11-08T08:35:38.968Z,97569.06
2022-11-08T08:38:08.258Z,97542.03
2022-11-08T08:40:41.943Z,97540.03
2022-11-08T08:43:08.920Z,97560.28
2022-11-08T08:45:36.659Z,97578.84
2022-11-08T08:48:08.147Z,97547.50
2022-11-08T08:50:37.415Z,97571.78
2022-11-08T08:53:07.429Z,97568.16
2022-11-08T08:55:39.334Z,97566.50
2022-11-08T08:58:06.240Z,97540.91
2022-11-08T09:03:23.152Z,97561.09
2022-11-08T09:05:49.995Z,97535.41
2022-11-08T09:08:16.948Z,97543.09
2022-11-08T09:10:44.097Z,97550.88
2022-11-08T09:13:11.299Z,97542.38
2022-11-08T09:15:39.702Z,97526.84
2022-11-08T09:18:07.239Z,97533.31
2022-11-08T09:20:36.879Z,97523.41
2022-11-08T09:23:06.756Z,97537.53
2022-11-08T09:25:36.140Z,97524.66
2022-11-08T09:28:03.357Z,97524.50
2022-11-08T09:30:31.131Z,97545.19
2022-11-08T09:33:02.128Z,97546.09
2022-11-08T09:35:30.674Z,97541.66
2022-11-08T09:37:58.541Z,97543.72
2022-11-08T09:40:37.367Z,97558.25
2022-11-08T09:43:18.759Z,97554.59
2022-11-08T09:45:47.942Z,97559.66
2022-11-08T09:48:26.801Z,97545.72
2022-11-08T09:50:55.059Z,97553.91
2022-11-08T09:53:37.888Z,97554.78
2022-11-08T09:56:28.985Z,97552.22
2022-11-08T09:59:13.040Z,97563.94
2022-11-08T10:01:40.245Z,97555.72
2022-11-08T10:04:16.439Z,97563.97
2022-11-08T10:07:05.673Z,97554.41
2022-11-08T10:09:54.919Z,97559.91
2022-11-08T10:12:21.378Z,97563.72
2022-11-08T10:14:54.114Z,97560.84
2022-11-08T10:17:53.006Z,97557.09
2022-11-08T10:20:45.784Z,97560.72
2022-11-08T10:23:21.683Z,97561.16
2022-11-08T10:25:54.525Z,97563.16
2022-11-08T10:28:28.007Z,97549.69
2022-11-08T10:30:55.400Z,97552.16
2022-11-08T10:33:38.106Z,97549.34
2022-11-08T10:36:13.573Z,97541.69
2022-11-08T10:38:51.495Z,97542.59
2022-11-08T10:41:54.294Z,97544.06
2022-11-08T10:44:25.586Z,97539.81
2022-11-08T10:47:00.242Z,97536.78
2022-11-08T10:49:28.086Z,97535.19
2022-11-08T10:51:57.687Z,97538.66
2022-11-08T10:54:50.442Z,97535.53
2022-11-08T10:57:24.782Z,97534.75
2022-11-08T10:59:52.641Z,97528.13
2022-11-08T11:02:22.088Z,97530.59
2022-11-08T11:04:49.366Z,97521.50
2022-11-08T11:07:30.710Z,97523.16
2022-11-08T11:09:57.505Z,97522.00
2022-11-08T11:12:24.161Z,97521.09
2022-11-08T11:14:58.902Z,97514.44
2022-11-08T11:17:35.495Z,97496.34
2022-11-08T11:20:18.353Z,97517.06
2022-11-08T11:22:46.491Z,97494.00
2022-11-08T11:25:19.209Z,97504.69
2022-11-08T11:27:57.772Z,97493.03
2022-11-08T11:30:31.857Z,97485.50
2022-11-08T11:33:21.521Z,97499.25
2022-11-08T11:35:53.197Z,97490.50
2022-11-08T11:38:42.038Z,97488.97
2022-11-08T11:41:17.027Z,97485.47
2022-11-08T11:44:20.805Z,97470.34
2022-11-08T11:47:05.952Z,97473.69
2022-11-08T11:49:35.807Z,97472.16
2022-11-08T11:52:02.350Z,97470.50
2022-11-08T11:54:32.051Z,97479.41
2022-11-08T11:57:27.779Z,97462.72
2022-11-08T12:00:13.535Z,97469.00
2022-11-08T12:03:01.185Z,97462.47
2022-11-08T12:05:59.678Z,97470.56
2022-11-08T12:08:51.222Z,97453.63
2022-11-08T12:11:39.236Z,97458.41
2022-11-08T12:14:38.910Z,97440.41
2022-11-08T12:17:36.820Z,97443.38
2022-11-08T12:20:26.889Z,97435.81
2022-11-08T12:23:00.009Z,97435.34
2022-11-08T12:25:36.868Z,97423.34
2022-11-08T12:28:09.247Z,97423.00
2022-11-08T12:30:44.781Z,97419.59
2022-11-08T12:33:38.342Z,97422.31
2022-11-08T12:36:44.596Z,97415.78
2022-11-08T12:39:11.111Z,97406.63
2022-11-08T12:42:07.937Z,97407.00
2022-11-08T12:45:05.580Z,97393.78
2022-11-08T12:47:43.821Z,97393.44
2022-11-08T12:50:17.584Z,97390.28
2022-11-08T12:53:05.489Z,97396.94
2022-11-08T12:55:44.461Z,97369.09
2022-11-08T12:58:36.580Z,97383.50
2022-11-08T13:01:11.633Z,97382.56
2022-11-08T13:03:46.893Z,97384.34
2022-11-08T13:06:39.717Z,97370.88
2022-11-08T13:09:41.726Z,97366.78
2022-11-08T13:12:34.726Z,97373.69
2022-11-08T13:15:06.553Z,97379.78
2022-11-08T13:17:36.711Z,97367.44
2022-11-08T13:20:40.333Z,97370.19
2022-11-08T13:23:12.208Z,97375.91
2022-11-08T13:25:42.811Z,97367.41
2022-11-08T13:28:37.457Z,97373.94
2022-11-08T13:31:34.627Z,97358.78
2022-11-08T13:34:37.395Z,97350.19
2022-11-08T13:37:27.300Z,97357.91
2022-11-08T13:40:09.129Z,97365.91
2022-11-08T13:42:36.483Z,97356.78
2022-11-08T13:45:25.488Z,97353.94
2022-11-08T13:47:55.567Z,97351.25
2022-11-08T13:50:28.495Z,97356.03
2022-11-08T13:53:20.077Z,97350.56
2022-11-08T13:55:49.449Z,97355.06
2022-11-08T13:58:54.416Z,97347.81
2022-11-08T14:01:20.954Z,97346.22
2022-11-08T14:03:47.579Z,97350.19
2022-11-08T14:06:29.896Z,97350.69
2022-11-08T14:09:33.444Z,97347.69
2022-11-08T14:12:21.855Z,97346.28
2022-11-08T14:15:00.468Z,97345.31
2022-11-08T14:17:46.120Z,97341.34
2022-11-08T14:20:41.066Z,97337.09
2022-11-08T14:23:20.246Z,97341.56
2022-11-08T14:26:00.218Z,97345.81
2022-11-08T14:28:32.947Z,97340.69
2022-11-08T14:31:01.204Z,97337.28
2022-11-08T14:33:29.897Z,97349.09
2022-11-08T14:36:04.272Z,97345.06
2022-11-08T14:38:35.338Z,97327.09
2022-11-08T14:41:05.036Z,97336.56
2022-11-08T14:43:41.359Z,97342.88
2022-11-08T14:46:26.344Z,97345.31
2022-11-08T14:48:54.725Z,97344.81
2022-11-08T14:51:21.359Z,97341.59
2022-11-08T14:53:53.401Z,97352.34
2022-11-08T14:56:22.967Z,97343.94
2022-11-08T14:58:51.703Z,97350.84
2022-11-08T15:01:24.172Z,97339.63
2022-11-08T15:04:00.019Z,97344.16
2022-11-08T15:06:32.512Z,97360.41
2022-11-08T15:09:00.361Z,97338.00
2022-11-08T15:11:40.202Z,97346.06
2022-11-08T15:14:17.219Z,97352.31
2022-11-08T15:16:46.779Z,97347.59
2022-11-08T15:19:31.552Z,97350.03
2022-11-08T15:22:00.242Z,97345.72
2022-11-08T15:24:39.480Z,97341.72
2022-11-08T15:27:12.234Z,97343.81
2022-11-08T15:29:53.724Z,97341.28
2022-11-08T15:32:22.066Z,97347.41
2022-11-08T15:34:52.598Z,97345.56
2022-11-08T15:37:39.341Z,97336.16
2022-11-08T15:40:16.065Z,97336.66
2022-11-08T15:42:50.513Z,97337.09
2022-11-08T15:45:17.352Z,97342.00
2022-11-08T15:47:43.888Z,97347.31
2022-11-08T15:50:33.181Z,97337.66
2022-11-08T15:53:01.973Z,97342.44
2022-11-08T15:55:40.079Z,97344.09
2022-11-08T15:58:16.118Z,97346.63
2022-11-08T16:00:47.107Z,97338.97
2022-11-08T16:03:13.700Z,97339.19
2022-11-08T16:05:40.207Z,97340.06
2022-11-08T16:08:08.388Z,97336.72
2022-11-08T16:10:44.887Z,97350.56
2022-11-08T16:13:28.183Z,97350.31
2022-11-08T16:15:55.324Z,97365.25
2022-11-08T16:18:22.191Z,97359.88
2022-11-08T16:20:49.017Z,97359.19
2022-11-08T16:23:16.887Z,97355.47
2022-11-08T16:25:49.475Z,97357.53
2022-11-08T16:28:27.364Z,97363.16
2022-11-08T16:30:54.055Z,97367.59
2022-11-08T16:33:26.583Z,97364.19
2022-11-08T16:36:01.801Z,97357.22
2022-11-08T16:38:33.763Z,97356.28
2022-11-08T16:41:00.412Z,97365.03
2022-11-08T16:43:27.006Z,97357.56
2022-11-08T16:46:09.678Z,97354.28
2022-11-08T16:48:39.989Z,97368.88
2022-11-08T16:51:12.147Z,97372.13
2022-11-08T16:53:41.458Z,97366.06
2022-11-08T16:56:10.026Z,97364.56
2022-11-08T16:58:40.321Z,97353.34
2022-11-08T17:01:10.589Z,97361.16
2022-11-08T17:03:39.201Z,97362.56
2022-11-08T17:06:06.183Z,97361.50
2022-11-08T17:08:32.714Z,97382.19
2022-11-08T17:10:59.255Z,97375.91
2022-11-08T17:13:25.763Z,97373.53
2022-11-08T17:15:55.043Z,97382.34
2022-11-08T17:18:21.886Z,97383.75
2022-11-08T17:20:48.818Z,97389.66
2022-11-08T17:23:16.467Z,97386.63
2022-11-08T17:25:44.486Z,97389.81
2022-11-08T17:28:12.296Z,97395.34
2022-11-08T17:30:44.519Z,97381.91
2022-11-08T17:33:12.972Z,97393.28
2022-11-08T17:35:44.283Z,97391.78
2022-11-08T17:38:11.527Z,97392.22
2022-11-08T17:40:42.390Z,97386.28
2022-11-08T17:43:09.853Z,97403.16
2022-11-08T17:45:36.358Z,97405.78
2022-11-08T17:48:02.871Z,97402.06
2022-11-08T17:50:29.369Z,97386.31
2022-11-08T17:52:58.380Z,97399.75
2022-11-08T17:55:24.877Z,97403.75
2022-11-08T17:57:51.358Z,97413.81
2022-11-08T18:00:18.132Z,97413.13
2022-11-08T18:02:45.888Z,97399.69
2022-11-08T18:05:12.478Z,97400.88
2022-11-08T18:07:41.733Z,97403.09
2022-11-08T18:10:11.344Z,97405.84
2022-11-08T18:12:38.927Z,97409.56
2022-11-08T18:15:06.255Z,97412.53
2022-11-08T18:17:32.790Z,97412.31
2022-11-08T18:19:59.317Z,97408.81
2022-11-08T18:22:25.919Z,97405.53
2022-11-08T18:24:52.551Z,97413.81
2022-11-08T18:27:19.100Z,97410.09
2022-11-08T18:29:45.613Z,97403.22
2022-11-08T18:32:12.141Z,97407.03
2022-11-08T18:34:41.819Z,97397.22
2022-11-08T18:37:10.515Z,97395.06
2022-11-08T18:39:37.067Z,97406.00
2022-11-08T18:42:03.766Z,97403.78
2022-11-08T18:44:30.242Z,97396.66
2022-11-08T18:46:56.812Z,97408.84
2022-11-08T18:49:23.381Z,97405.22
2022-11-08T18:51:52.164Z,97404.69
2022-11-08T18:54:20.041Z,97413.06
2022-11-08T18:56:46.535Z,97417.97
2022-11-08T18:59:13.278Z,97415.25
2022-11-08T19:01:43.036Z,97405.78
2022-11-08T19:04:12.010Z,97412.88
2022-11-08T19:06:38.643Z,97405.28
2022-11-08T19:09:05.293Z,97417.22
2022-11-08T19:11:32.158Z,97402.41
2022-11-08T19:13:58.991Z,97413.34
2022-11-08T19:16:25.957Z,97412.25
2022-11-08T19:18:52.898Z,97411.06
2022-11-08T19:21:24.727Z,97415.72
2022-11-08T19:23:52.623Z,97407.88
2022-11-08T19:26:22.172Z,97419.69
2022-11-08T19:28:54.334Z,97409.03
2022-11-08T19:31:24.321Z,97405.56
2022-11-08T19:33:52.579Z,97422.22
2022-11-08T19:36:22.130Z,97427.59
2022-11-08T19:38:49.561Z,97412.28
2022-11-08T19:41:19.591Z,97413.59
2022-11-08T19:43:47.096Z,97425.91
2022-11-08T19:46:17.071Z,97416.56
2022-11-08T19:48:45.381Z,97424.13
2022-11-08T19:51:23.552Z,97426.78
2022-11-08T19:53:53.888Z,97426.22
2022-11-08T19:56:32.866Z,97378.88
2022-11-08T19:59:05.692Z,97417.78
2022-11-08T20:01:36.320Z,97420.41
2022-11-08T20:04:05.094Z,97423.75
2022-11-08T20:06:32.437Z,97411.47
2022-11-08T20:08:59.479Z,97404.56
2022-11-08T20:11:29.212Z,97427.69
2022-11-08T20:14:00.041Z,97422.84
2022-11-08T20:16:32.492Z,97439.72
2022-11-08T20:19:09.161Z,97422.78
2022-11-08T20:21:38.819Z,97432.50
2022-11-08T20:24:05.689Z,97427.22
2022-11-08T20:26:37.413Z,97440.97
2022-11-08T20:29:04.509Z,97445.56
2022-11-08T20:31:32.851Z,97433.09
2022-11-08T20:33:59.788Z,97455.81
2022-11-08T20:36:27.247Z,97459.97
2022-11-08T20:39:03.658Z,97473.84
2022-11-08T20:41:34.389Z,97444.09
2022-11-08T20:44:00.917Z,97447.03
2022-11-08T20:46:27.802Z,97460.09
2022-11-08T20:49:00.308Z,97471.78
2022-11-08T20:51:28.425Z,97470.81
2022-11-08T20:53:55.968Z,97470.63
2022-11-08T20:56:23.492Z,97470.63
2022-11-08T20:58:53.528Z,97464.25
2022-11-08T21:01:22.334Z,97455.88
2022-11-08T21:03:49.790Z,97459.84
2022-11-08T21:06:20.429Z,97488.53
2022-11-08T21:09:13.273Z,97488.53
2022-11-08T21:11:36.301Z,97496.97
2022-11-08T21:14:04.593Z,97488.59
2022-11-08T21:16:46.887Z,97491.88
2022-11-08T21:19:18.943Z,97502.78
2022-11-08T21:21:47.261Z,97484.94
2022-11-08T21:24:14.041Z,97489.50
2022-11-08T21:26:42.651Z,97502.19
2022-11-08T21:29:09.128Z,97499.94
2022-11-08T21:31:35.851Z,97503.38
2022-11-08T21:34:02.353Z,97505.44
2022-11-08T21:36:29.231Z,97500.75
2022-11-08T21:38:56.055Z,97518.41
2022-11-08T21:41:22.636Z,97505.69
2022-11-08T21:43:49.248Z,97518.44
2022-11-08T21:46:26.511Z,97521.31
2022-11-08T21:48:58.538Z,97529.72
2022-11-08T21:51:25.853Z,97537.31
2022-11-08T21:53:55.488Z,97542.25
2022-11-08T21:56:24.525Z,97535.28
2022-11-08T21:58:51.037Z,97510.84
2022-11-08T22:01:18.220Z,97529.50
2022-11-08T22:03:47.633Z,97517.59
2022-11-08T22:06:17.197Z,97509.38
2022-11-08T22:08:47.108Z,97497.06
2022-11-08T22:11:19.256Z,97510.13
2022-11-08T22:13:48.921Z,97527.81
2022-11-08T22:16:16.107Z,97528.91
2022-11-08T22:21:38.899Z,97542.06
2022-11-08T22:24:06.326Z,97542.25
2022-11-08T22:26:33.063Z,97546.16
2022-11-08T22:28:59.808Z,97513.13
2022-11-08T22:31:26.338Z,97517.66
2022-11-08T22:33:52.840Z,97529.72
2022-11-08T22:36:19.410Z,97514.97
2022-11-08T22:38:48.989Z,97530.72
2022-11-08T22:41:20.338Z,97533.19
2022-11-08T22:43:50.069Z,97528.50
2022-11-08T22:46:18.895Z,97536.31
2022-11-08T22:48:48.512Z,97511.31
2022-11-08T22:51:17.951Z,97496.78
2022-11-08T22:53:44.491Z,97528.97
2022-11-08T22:56:11.928Z,97521.78
2022-11-08T22:58:39.508Z,97533.69
2022-11-08T23:01:07.372Z,97523.44
2022-11-08T23:03:33.903Z,97501.28
2022-11-08T23:06:00.378Z,97496.13
2022-11-08T23:08:27.275Z,97499.63
2022-11-08T23:11:12.835Z,97508.03
2022-11-08T23:13:58.720Z,97504.78
2022-11-08T23:16:37.829Z,97495.97
2022-11-08T23:19:25.758Z,97501.47
2022-11-08T23:22:11.649Z,97489.59
2022-11-08T23:24:38.579Z,97498.22
2022-11-08T23:27:24.887Z,97501.91
2022-11-08T23:30:10.438Z,97492.84
2022-11-08T23:32:42.611Z,97516.88
2022-11-08T23:35:09.387Z,97483.63
2022-11-08T23:37:35.898Z,97485.91
2022-11-08T23:40:20.745Z,97491.81
2022-11-08T23:43:05.670Z,97505.97
2022-11-08T23:45:32.202Z,97507.41
2022-11-08T23:47:58.802Z,97511.50
2022-11-08T23:50:25.322Z,97510.66
2022-11-08T23:52:51.820Z,97485.66
2022-11-08T23:55:20.712Z,97504.75
2022-11-08T23:57:47.883Z,97498.41
